createdAt,value
2022-07-29T00:00:57.208Z,64.63
2022-07-29T00:03:23.756Z,65.73
2022-07-29T00:05:50.286Z,64.71
2022-07-29T00:08:16.743Z,64.95
2022-07-29T00:10:43.492Z,64.51
2022-07-29T00:13:09.982Z,64.21
2022-07-29T00:15:36.555Z,65.90
2022-07-29T00:18:03.120Z,65.22
2022-07-29T00:20:29.598Z,65.05
2022-07-29T00:22:56.143Z,64.38
2022-07-29T00:25:22.599Z,65.28
2022-07-29T00:27:49.178Z,65.35
2022-07-29T00:30:15.832Z,63.78
2022-07-29T00:32:42.564Z,64.22
2022-07-29T00:35:28.443Z,64.15
2022-07-29T00:37:54.965Z,63.30
2022-07-29T00:40:23.523Z,63.70
2022-07-29T00:42:52.624Z,63.24
2022-07-29T00:45:19.923Z,63.00
2022-07-29T00:47:47.434Z,63.34
2022-07-29T00:50:14.682Z,62.51
2022-07-29T00:52:42.996Z,62.09
2022-07-29T00:55:14.505Z,62.49
2022-07-29T00:57:42.186Z,62.79
2022-07-29T01:00:12.109Z,61.95
2022-07-29T01:02:38.664Z,61.30
2022-07-29T01:05:06.867Z,61.11
2022-07-29T01:07:35.971Z,61.10
2022-07-29T01:10:05.532Z,60.34
2022-07-29T01:12:34.437Z,60.58
2022-07-29T01:15:02.633Z,61.46
2022-07-29T01:17:34.681Z,61.44
2022-07-29T01:20:31.459Z,62.13
2022-07-29T01:23:20.203Z,63.52
2022-07-29T01:26:07.991Z,62.67
2022-07-29T01:28:46.987Z,61.57
2022-07-29T01:31:24.986Z,61.46
2022-07-29T01:34:03.906Z,61.02
2022-07-29T01:36:36.119Z,61.04
2022-07-29T01:39:13.663Z,60.31
2022-07-29T01:41:51.807Z,61.10
2022-07-29T01:44:23.667Z,62.01
2022-07-29T01:46:55.018Z,62.13
2022-07-29T01:49:28.229Z,63.54
2022-07-29T01:52:03.506Z,62.15
2022-07-29T01:54:43.917Z,62.71
2022-07-29T01:57:15.640Z,64.10
2022-07-29T01:59:44.361Z,62.94
2022-07-29T02:02:13.873Z,62.90
2022-07-29T02:04:42.372Z,65.81
2022-07-29T02:07:15.243Z,66.47
2022-07-29T02:09:42.844Z,67.15
2022-07-29T02:12:11.654Z,67.20
2022-07-29T02:14:44.707Z,65.86
2022-07-29T02:17:13.283Z,65.71
2022-07-29T02:19:42.871Z,67.65
2022-07-29T02:22:11.128Z,67.46
2022-07-29T02:24:41.099Z,67.73
2022-07-29T02:27:09.047Z,67.32
2022-07-29T02:29:36.789Z,67.85
2022-07-29T02:32:04.759Z,69.59
2022-07-29T02:34:31.972Z,70.23
2022-07-29T02:36:59.412Z,70.64
2022-07-29T02:39:28.475Z,70.32
2022-07-29T02:42:08.082Z,70.15
2022-07-29T02:44:35.747Z,69.76
2022-07-29T02:47:10.963Z,68.57
2022-07-29T02:50:05.331Z,68.67
2022-07-29T02:52:46.775Z,67.73
2022-07-29T02:55:23.494Z,68.02
2022-07-29T02:58:02.191Z,67.19
2022-07-29T03:00:32.374Z,67.88
2022-07-29T03:03:01.966Z,67.67
2022-07-29T03:05:28.498Z,67.74
2022-07-29T03:08:15.704Z,68.02
2022-07-29T03:10:46.524Z,67.22
2022-07-29T03:13:14.137Z,67.52
2022-07-29T03:15:43.104Z,67.13
2022-07-29T03:18:10.607Z,68.14
2022-07-29T03:20:38.727Z,66.80
2022-07-29T03:23:05.561Z,66.40
2022-07-29T03:25:32.367Z,66.32
2022-07-29T03:27:58.866Z,66.71
2022-07-29T03:30:25.339Z,66.16
2022-07-29T03:32:52.752Z,66.51
2022-07-29T03:35:20.936Z,65.99
2022-07-29T03:37:47.766Z,66.40
2022-07-29T03:40:26.879Z,66.68
2022-07-29T03:42:56.478Z,66.55
2022-07-29T03:45:24.550Z,66.55
2022-07-29T03:48:00.748Z,66.13
2022-07-29T03:50:29.557Z,65.83
2022-07-29T03:52:56.077Z,65.36
2022-07-29T03:55:22.986Z,66.21
2022-07-29T03:57:51.624Z,66.66
2022-07-29T04:00:18.761Z,66.30
2022-07-29T04:02:49.247Z,66.51
2022-07-29T04:05:16.549Z,66.40
2022-07-29T04:07:47.913Z,66.29
2022-07-29T04:10:16.592Z,66.27
2022-07-29T04:12:43.262Z,67.45
2022-07-29T04:15:10.460Z,67.77
2022-07-29T04:17:36.928Z,67.57
2022-07-29T04:20:04.741Z,68.11
2022-07-29T04:22:31.280Z,67.80
2022-07-29T04:25:03.229Z,68.08
2022-07-29T04:27:30.378Z,68.36
2022-07-29T04:29:57.632Z,68.26
2022-07-29T04:32:28.005Z,68.96
2022-07-29T04:34:54.551Z,69.23
2022-07-29T04:37:21.118Z,68.50
2022-07-29T04:39:47.603Z,68.82
2022-07-29T04:42:14.097Z,68.72
2022-07-29T04:44:42.835Z,69.19
2022-07-29T04:47:09.888Z,68.50
2022-07-29T04:49:39.111Z,68.60
2022-07-29T04:52:06.370Z,68.79
2022-07-29T04:54:32.823Z,67.57
2022-07-29T04:56:59.291Z,68.35
2022-07-29T04:59:27.637Z,67.73
2022-07-29T05:01:54.293Z,68.00
2022-07-29T05:04:21.154Z,67.79
2022-07-29T05:06:47.874Z,67.32
2022-07-29T05:09:14.368Z,67.96
2022-07-29T05:11:40.949Z,68.01
2022-07-29T05:14:07.417Z,68.21
2022-07-29T05:16:34.471Z,68.18
2022-07-29T05:19:01.022Z,68.66
2022-07-29T05:21:27.494Z,68.40
2022-07-29T05:23:53.943Z,67.88
2022-07-29T05:26:20.449Z,67.21
2022-07-29T05:28:46.923Z,67.54
2022-07-29T05:31:15.584Z,66.66
2022-07-29T05:33:42.534Z,66.53
2022-07-29T05:36:09.375Z,66.91
2022-07-29T05:38:36.781Z,66.94
2022-07-29T05:41:03.934Z,65.41
2022-07-29T05:43:30.937Z,65.88
2022-07-29T05:45:57.827Z,64.72
2022-07-29T05:48:24.759Z,63.96
2022-07-29T05:50:51.223Z,64.41
2022-07-29T05:53:20.158Z,64.75
2022-07-29T05:55:48.317Z,63.67
2022-07-29T05:58:14.802Z,63.45
2022-07-29T06:00:41.439Z,62.43
2022-07-29T06:03:08.023Z,62.68
2022-07-29T06:05:34.528Z,63.17
2022-07-29T06:08:00.995Z,62.49
2022-07-29T06:10:27.897Z,64.53
2022-07-29T06:12:54.522Z,63.64
2022-07-29T06:15:21.199Z,63.87
2022-07-29T06:18:00.035Z,63.77
2022-07-29T06:20:27.769Z,63.23
2022-07-29T06:22:54.219Z,62.18
2022-07-29T06:25:20.794Z,61.63
2022-07-29T06:27:47.243Z,60.82
2022-07-29T06:30:13.951Z,60.94
2022-07-29T06:32:43.171Z,59.36
2022-07-29T06:35:37.890Z,59.41
2022-07-29T06:37:59.619Z,58.73
2022-07-29T06:40:45.235Z,59.79
2022-07-29T06:43:11.868Z,57.93
2022-07-29T06:45:42.212Z,57.36
2022-07-29T06:48:08.976Z,57.64
2022-07-29T06:50:35.638Z,57.11
2022-07-29T06:53:02.319Z,58.11
2022-07-29T06:55:28.788Z,55.25
2022-07-29T06:57:55.247Z,54.78
2022-07-29T07:00:21.774Z,53.93
2022-07-29T07:02:48.897Z,54.30
2022-07-29T07:05:15.502Z,53.00
2022-07-29T07:07:41.985Z,50.08
2022-07-29T07:10:09.259Z,52.62
2022-07-29T07:12:35.797Z,50.85
2022-07-29T07:15:02.305Z,49.74
2022-07-29T07:17:28.806Z,51.17
2022-07-29T07:19:55.719Z,50.67
2022-07-29T07:22:22.302Z,52.95
2022-07-29T07:24:48.775Z,50.43
2022-07-29T07:27:15.322Z,53.27
2022-07-29T07:29:43.708Z,49.50
2022-07-29T07:32:11.055Z,50.52
2022-07-29T07:34:38.997Z,49.86
2022-07-29T07:37:06.265Z,49.15
2022-07-29T07:39:32.710Z,50.71
2022-07-29T07:41:59.283Z,48.59
2022-07-29T07:44:25.736Z,47.39
2022-07-29T07:46:53.434Z,47.74
2022-07-29T07:49:21.290Z,49.12
2022-07-29T07:51:50.731Z,50.04
2022-07-29T07:54:20.486Z,48.91
2022-07-29T07:56:50.777Z,48.47
2022-07-29T07:59:19.913Z,48.66
2022-07-29T08:01:55.109Z,49.09
2022-07-29T08:04:27.327Z,50.67
2022-07-29T08:06:55.884Z,47.19
2022-07-29T08:09:30.886Z,48.08
2022-07-29T08:12:00.023Z,45.15
2022-07-29T08:14:26.687Z,45.84
2022-07-29T08:16:53.192Z,47.08
2022-07-29T08:19:19.711Z,45.42
2022-07-29T08:21:46.391Z,43.33
2022-07-29T08:24:31.615Z,43.80
2022-07-29T08:26:58.185Z,40.81
2022-07-29T08:29:24.745Z,41.90
2022-07-29T08:31:51.534Z,44.90
2022-07-29T08:34:18.221Z,43.29
2022-07-29T08:36:44.745Z,42.67
2022-07-29T08:39:16.743Z,42.72
2022-07-29T08:41:53.057Z,42.35
2022-07-29T08:44:30.400Z,43.01
2022-07-29T08:46:58.089Z,44.16
2022-07-29T08:49:24.824Z,44.37
2022-07-29T08:51:52.554Z,46.48
2022-07-29T08:54:20.843Z,42.62
2022-07-29T08:56:50.921Z,42.45
2022-07-29T08:59:22.032Z,43.79
2022-07-29T09:01:52.145Z,43.72
2022-07-29T09:04:20.391Z,42.49
2022-07-29T09:06:50.404Z,44.56
2022-07-29T09:09:17.650Z,42.01
2022-07-29T09:11:44.506Z,41.96
2022-07-29T09:14:13.502Z,42.58
2022-07-29T09:16:57.547Z,41.42
2022-07-29T09:19:29.613Z,37.87
2022-07-29T09:22:04.394Z,38.76
2022-07-29T09:24:38.667Z,38.74
2022-07-29T09:27:11.219Z,40.41
2022-07-29T09:29:38.935Z,39.39
2022-07-29T09:32:10.568Z,40.94
2022-07-29T09:34:38.010Z,40.50
2022-07-29T09:37:05.119Z,40.83
2022-07-29T09:39:37.490Z,39.12
2022-07-29T09:42:06.109Z,39.99
2022-07-29T09:44:52.854Z,38.42
2022-07-29T09:47:22.748Z,37.58
2022-07-29T09:49:53.782Z,37.21
2022-07-29T09:52:20.840Z,36.05
2022-07-29T09:54:47.419Z,36.40
2022-07-29T09:57:31.251Z,35.74
2022-07-29T10:00:00.583Z,35.33
2022-07-29T10:02:32.219Z,35.22
2022-07-29T10:05:00.392Z,35.12
2022-07-29T10:07:27.541Z,36.02
2022-07-29T10:09:58.694Z,36.40
2022-07-29T10:12:25.442Z,36.66
2022-07-29T10:14:52.402Z,38.21
2022-07-29T10:17:20.207Z,38.00
2022-07-29T10:19:48.062Z,37.46
2022-07-29T10:22:15.073Z,36.88
2022-07-29T10:24:41.733Z,37.28
2022-07-29T10:27:09.528Z,36.22
2022-07-29T10:29:37.117Z,37.57
2022-07-29T10:32:06.303Z,38.05
2022-07-29T10:35:06.733Z,39.33
2022-07-29T10:37:58.282Z,39.18
2022-07-29T10:41:00.846Z,39.87
2022-07-29T10:43:31.859Z,36.70
2022-07-29T10:46:00.834Z,37.79
2022-07-29T10:48:27.423Z,36.10
2022-07-29T10:51:05.060Z,34.31
2022-07-29T10:53:51.631Z,36.21
2022-07-29T10:56:30.359Z,36.52
2022-07-29T10:59:22.926Z,37.20
2022-07-29T11:01:56.672Z,34.80
2022-07-29T11:04:45.251Z,38.27
2022-07-29T11:07:13.789Z,39.05
2022-07-29T11:09:41.815Z,35.10
2022-07-29T11:12:39.409Z,38.08
2022-07-29T11:15:13.732Z,35.52
2022-07-29T11:17:59.207Z,38.00
2022-07-29T11:20:37.910Z,37.59
2022-07-29T11:23:33.321Z,38.15
2022-07-29T11:26:23.238Z,37.23
2022-07-29T11:28:55.641Z,37.75
2022-07-29T11:31:34.622Z,37.30
2022-07-29T11:34:31.360Z,36.11
2022-07-29T11:37:07.470Z,36.38
2022-07-29T11:42:28.174Z,34.93
2022-07-29T11:45:43.678Z,35.00
2022-07-29T11:48:27.653Z,35.91
2022-07-29T11:50:48.291Z,34.62
2022-07-29T11:53:16.083Z,33.15
2022-07-29T11:58:30.161Z,32.56
2022-07-29T12:00:57.993Z,31.57
2022-07-29T12:03:34.813Z,31.54
2022-07-29T12:06:02.765Z,32.24
2022-07-29T12:07:01.815Z,36.35
2022-07-29T12:08:30.456Z,32.70
2022-07-29T12:10:57.095Z,32.10
2022-07-29T12:13:36.975Z,33.86
2022-07-29T12:16:05.036Z,33.52
2022-07-29T12:18:32.031Z,34.93
2022-07-29T12:21:03.075Z,34.68
2022-07-29T12:23:34.488Z,35.89
2022-07-29T12:26:02.027Z,35.66
2022-07-29T12:28:28.556Z,37.11
2022-07-29T12:30:55.051Z,36.51
2022-07-29T12:33:27.360Z,37.06
2022-07-29T12:36:06.767Z,36.51
2022-07-29T12:38:35.874Z,37.35
2022-07-29T12:41:02.715Z,37.30
2022-07-29T12:43:31.492Z,35.03
2022-07-29T12:45:58.436Z,33.19
2022-07-29T12:48:35.841Z,33.49
2022-07-29T12:51:04.078Z,34.84
2022-07-29T12:53:31.066Z,34.70
2022-07-29T12:56:00.653Z,33.89
2022-07-29T12:58:28.172Z,32.44
2022-07-29T13:01:06.992Z,34.27
2022-07-29T13:03:56.874Z,37.85
2022-07-29T13:06:34.695Z,38.50
2022-07-29T13:09:25.182Z,38.86
2022-07-29T13:11:53.453Z,37.37
2022-07-29T13:14:40.414Z,36.71
2022-07-29T13:17:16.770Z,36.14
2022-07-29T13:19:51.386Z,38.12
2022-07-29T13:22:25.713Z,36.52
2022-07-29T13:24:55.504Z,36.88
2022-07-29T13:27:30.191Z,37.05
2022-07-29T13:29:59.228Z,37.72
2022-07-29T13:32:28.527Z,39.79
2022-07-29T13:35:00.395Z,40.91
2022-07-29T13:37:30.687Z,40.38
2022-07-29T13:39:58.115Z,38.34
2022-07-29T13:42:24.887Z,38.19
2022-07-29T13:44:52.656Z,38.04
2022-07-29T13:47:31.920Z,38.88
2022-07-29T13:50:00.391Z,39.84
2022-07-29T13:52:26.918Z,39.31
2022-07-29T13:54:53.406Z,39.54
2022-07-29T13:57:20.318Z,40.68
2022-07-29T13:59:50.528Z,40.78
2022-07-29T14:02:19.998Z,41.60
2022-07-29T14:04:46.659Z,40.42
2022-07-29T14:07:16.215Z,39.60
2022-07-29T14:09:43.513Z,40.67
2022-07-29T14:12:10.267Z,41.84
2022-07-29T14:14:37.705Z,42.71
2022-07-29T14:17:07.512Z,41.23
2022-07-29T14:19:36.751Z,39.91
2022-07-29T14:22:05.431Z,39.65
2022-07-29T14:24:34.676Z,40.74
2022-07-29T14:27:04.290Z,39.16
2022-07-29T14:29:37.497Z,40.10
2022-07-29T14:32:06.942Z,42.37
2022-07-29T14:34:34.405Z,42.75
2022-07-29T14:37:00.871Z,42.99
2022-07-29T14:39:31.998Z,43.97
2022-07-29T14:41:59.193Z,43.39
2022-07-29T14:44:31.991Z,43.41
2022-07-29T14:47:00.743Z,44.41
2022-07-29T14:49:28.201Z,45.53
2022-07-29T14:51:55.078Z,45.41
2022-07-29T14:54:21.863Z,45.78
2022-07-29T14:56:50.316Z,46.58
2022-07-29T14:59:17.487Z,47.26
2022-07-29T15:01:44.241Z,47.13
2022-07-29T15:04:10.714Z,48.52
2022-07-29T15:06:37.535Z,48.80
2022-07-29T15:09:04.073Z,48.03
2022-07-29T15:11:30.579Z,47.82
2022-07-29T15:14:03.595Z,47.26
2022-07-29T15:16:30.115Z,47.85
2022-07-29T15:18:58.686Z,46.63
2022-07-29T15:21:28.002Z,46.90
2022-07-29T15:23:54.575Z,46.06
2022-07-29T15:26:21.171Z,44.34
2022-07-29T15:28:47.869Z,44.47
2022-07-29T15:31:14.424Z,46.17
2022-07-29T15:33:41.455Z,45.54
2022-07-29T15:36:08.209Z,45.98
2022-07-29T15:38:34.790Z,44.22
2022-07-29T15:41:01.420Z,43.46
2022-07-29T15:43:28.178Z,42.20
2022-07-29T15:46:13.600Z,43.45
2022-07-29T15:48:40.384Z,43.59
2022-07-29T15:51:06.930Z,42.85
2022-07-29T15:53:35.278Z,43.23
2022-07-29T15:56:02.202Z,40.97
2022-07-29T15:58:28.908Z,40.19
2022-07-29T16:00:55.631Z,40.74
2022-07-29T16:03:22.929Z,40.27
2022-07-29T16:05:49.603Z,40.26
2022-07-29T16:08:16.220Z,39.79
2022-07-29T16:10:42.719Z,38.83
2022-07-29T16:13:09.307Z,40.41
2022-07-29T16:15:35.846Z,40.99
2022-07-29T16:18:02.384Z,40.52
2022-07-29T16:20:30.211Z,40.39
2022-07-29T16:22:56.851Z,41.18
2022-07-29T16:25:38.478Z,41.74
2022-07-29T16:28:10.574Z,41.11
2022-07-29T16:30:37.136Z,41.41
2022-07-29T16:33:08.090Z,41.67
2022-07-29T16:35:39.496Z,41.87
2022-07-29T16:38:06.783Z,41.86
2022-07-29T16:40:33.333Z,43.60
2022-07-29T16:42:59.930Z,43.04
2022-07-29T16:45:26.651Z,43.68
2022-07-29T16:48:01.005Z,43.78
2022-07-29T16:50:28.904Z,44.94
2022-07-29T16:52:56.341Z,45.30
2022-07-29T16:55:22.820Z,45.12
2022-07-29T16:57:49.654Z,46.01
2022-07-29T17:00:17.580Z,46.90
2022-07-29T17:02:44.150Z,48.44
2022-07-29T17:05:12.339Z,49.16
2022-07-29T17:07:40.253Z,50.00
2022-07-29T17:10:10.991Z,49.94
2022-07-29T17:12:38.859Z,52.10
2022-07-29T17:15:07.397Z,51.98
2022-07-29T17:17:38.973Z,51.76
2022-07-29T17:20:20.959Z,53.81
2022-07-29T17:22:47.530Z,55.31
2022-07-29T17:25:20.815Z,54.75
2022-07-29T17:27:49.518Z,56.31
2022-07-29T17:30:16.042Z,56.88
2022-07-29T17:32:42.508Z,56.42
2022-07-29T17:35:29.767Z,57.11
2022-07-29T17:37:56.302Z,57.96
2022-07-29T17:40:22.986Z,58.17
2022-07-29T17:42:49.682Z,58.52
2022-07-29T17:45:16.368Z,59.03
2022-07-29T17:47:42.831Z,58.77
2022-07-29T17:50:09.708Z,60.37
2022-07-29T17:52:36.226Z,60.36
2022-07-29T17:55:02.747Z,60.24
2022-07-29T17:57:29.258Z,60.93
2022-07-29T17:59:55.726Z,61.41
2022-07-29T18:02:22.293Z,61.69
2022-07-29T18:04:51.554Z,62.51
2022-07-29T18:07:18.558Z,62.23
2022-07-29T18:09:45.261Z,63.02
2022-07-29T18:12:11.770Z,63.43
2022-07-29T18:14:38.527Z,63.59
2022-07-29T18:17:05.001Z,63.28
2022-07-29T18:19:31.667Z,63.47
2022-07-29T18:22:03.226Z,63.63
2022-07-29T18:24:32.321Z,63.80
2022-07-29T18:26:59.122Z,63.55
2022-07-29T18:29:28.795Z,63.77
2022-07-29T18:31:55.406Z,63.13
2022-07-29T18:34:22.012Z,63.34
2022-07-29T18:36:48.543Z,63.08
2022-07-29T18:39:20.713Z,63.47
2022-07-29T18:41:50.628Z,63.34
2022-07-29T18:44:22.011Z,63.72
2022-07-29T18:46:49.588Z,62.68
2022-07-29T18:49:16.175Z,64.10
2022-07-29T18:51:42.815Z,63.32
2022-07-29T18:54:10.724Z,63.38
2022-07-29T18:56:37.602Z,64.80
2022-07-29T18:59:04.753Z,64.44
2022-07-29T19:01:31.850Z,65.72
2022-07-29T19:03:59.176Z,65.07
2022-07-29T19:06:26.160Z,65.66
2022-07-29T19:08:52.823Z,66.40
2022-07-29T19:11:19.322Z,66.65
2022-07-29T19:13:45.864Z,66.40
2022-07-29T19:16:14.030Z,67.26
2022-07-29T19:18:41.342Z,67.73
2022-07-29T19:21:07.841Z,67.69
2022-07-29T19:24:01.411Z,68.91
2022-07-29T19:26:20.972Z,69.93
2022-07-29T19:28:48.710Z,70.59
2022-07-29T19:31:15.802Z,69.63
2022-07-29T19:33:42.674Z,71.04
2022-07-29T19:36:09.194Z,70.27
2022-07-29T19:38:35.743Z,70.47
2022-07-29T19:41:02.218Z,70.67
2022-07-29T19:43:51.499Z,71.64
2022-07-29T19:46:15.773Z,70.06
2022-07-29T19:48:42.403Z,70.20
2022-07-29T19:51:08.923Z,70.61
2022-07-29T19:53:35.455Z,71.15
2022-07-29T19:56:01.965Z,71.24
2022-07-29T19:58:30.287Z,71.92
2022-07-29T20:00:57.312Z,70.74
2022-07-29T20:03:23.766Z,71.35
2022-07-29T20:05:51.364Z,71.33
2022-07-29T20:08:18.104Z,71.85
2022-07-29T20:10:44.655Z,72.14
2022-07-29T20:13:11.203Z,71.86
2022-07-29T20:15:37.724Z,71.90
2022-07-29T20:18:04.549Z,72.17
2022-07-29T20:20:31.008Z,73.20
2022-07-29T20:22:58.585Z,73.67
2022-07-29T20:25:25.409Z,72.82
2022-07-29T20:27:55.110Z,73.30
2022-07-29T20:30:22.456Z,72.43
2022-07-29T20:32:49.840Z,72.36
2022-07-29T20:35:16.498Z,73.31
2022-07-29T20:37:52.312Z,72.56
2022-07-29T20:40:24.294Z,73.58
2022-07-29T20:42:50.803Z,73.41
2022-07-29T20:45:17.515Z,73.76
2022-07-29T20:47:43.995Z,74.30
2022-07-29T20:50:10.460Z,73.67
2022-07-29T20:52:36.991Z,74.41
2022-07-29T20:55:03.690Z,74.57
2022-07-29T20:57:39.157Z,74.80
2022-07-29T21:00:07.464Z,75.56
2022-07-29T21:02:34.292Z,75.73
2022-07-29T21:05:01.172Z,76.36
2022-07-29T21:07:27.688Z,75.41
2022-07-29T21:09:54.143Z,76.09
2022-07-29T21:12:20.605Z,76.12
2022-07-29T21:14:48.071Z,76.37
2022-07-29T21:17:16.336Z,77.62
2022-07-29T21:19:43.196Z,78.64
2022-07-29T21:22:09.982Z,78.86
2022-07-29T21:24:36.507Z,79.48
2022-07-29T21:27:22.005Z,80.74
2022-07-29T21:29:49.354Z,81.77
2022-07-29T21:32:29.764Z,82.58
2022-07-29T21:34:56.770Z,82.40
2022-07-29T21:37:23.333Z,81.88
2022-07-29T21:39:49.920Z,82.84
2022-07-29T21:42:16.495Z,81.69
2022-07-29T21:44:43.022Z,82.68
2022-07-29T21:47:09.860Z,81.86
2022-07-29T21:49:36.359Z,82.43
2022-07-29T21:52:04.715Z,81.26
2022-07-29T21:54:31.496Z,81.77
2022-07-29T21:56:58.373Z,81.69
2022-07-29T21:59:25.275Z,81.58
2022-07-29T22:01:51.824Z,81.25
2022-07-29T22:04:18.529Z,81.01
2022-07-29T22:06:45.084Z,80.11
2022-07-29T22:09:11.692Z,80.57
2022-07-29T22:11:38.274Z,80.05
2022-07-29T22:14:05.742Z,80.01
2022-07-29T22:16:32.307Z,80.13
2022-07-29T22:18:58.834Z,80.36
2022-07-29T22:21:25.315Z,80.38
2022-07-29T22:23:51.824Z,80.30
2022-07-29T22:26:18.354Z,79.63
2022-07-29T22:28:44.829Z,78.80
2022-07-29T22:31:11.390Z,78.60
2022-07-29T22:33:37.987Z,78.94
2022-07-29T22:36:04.755Z,79.87
2022-07-29T22:38:31.214Z,79.39
2022-07-29T22:41:01.326Z,78.83
2022-07-29T22:43:28.232Z,78.63
2022-07-29T22:45:54.959Z,78.96
2022-07-29T22:48:21.503Z,79.47
2022-07-29T22:50:47.994Z,79.53
2022-07-29T22:53:14.468Z,79.74
2022-07-29T22:55:41.053Z,80.31
2022-07-29T22:58:07.539Z,79.32
2022-07-29T23:00:34.226Z,79.59
2022-07-29T23:03:00.753Z,80.41
2022-07-29T23:05:27.332Z,79.69
2022-07-29T23:07:53.821Z,79.76
2022-07-29T23:10:22.185Z,79.94
2022-07-29T23:12:48.624Z,79.82
2022-07-29T23:15:15.322Z,79.63
2022-07-29T23:17:41.789Z,80.31
2022-07-29T23:20:09.908Z,80.14
2022-07-29T23:22:36.657Z,79.83
2022-07-29T23:25:04.976Z,80.26
2022-07-29T23:27:31.506Z,81.32
2022-07-29T23:29:57.982Z,80.51
2022-07-29T23:32:24.410Z,80.78
2022-07-29T23:34:50.879Z,80.79
2022-07-29T23:37:17.326Z,81.01
2022-07-29T23:39:43.807Z,81.52
2022-07-29T23:42:10.278Z,81.66
2022-07-29T23:44:36.760Z,81.44
2022-07-29T23:47:03.676Z,81.49
2022-07-29T23:49:30.397Z,80.74
2022-07-29T23:51:57.026Z,80.50
2022-07-29T23:54:23.508Z,81.01
2022-07-29T23:56:49.977Z,79.67
2022-07-29T23:59:16.482Z,79.94
